sensor_id;sensor_type;location;lat;lon;timestamp;temperature;humidity
43561;DHT22;32305;46.410;17.394;2023-10-13T00:02:02;23.20;56.60
43561;DHT22;32305;46.410;17.394;2023-10-13T00:04:32;23.20;56.60
43561;DHT22;32305;46.410;17.394;2023-10-13T00:07:03;23.20;56.60
43561;DHT22;32305;46.410;17.394;2023-10-13T00:09:31;23.20;56.60
43561;DHT22;32305;46.410;17.394;2023-10-13T00:12:05;23.20;56.60
43561;DHT22;32305;46.410;17.394;2023-10-13T00:14:36;23.20;56.60
43561;DHT22;32305;46.410;17.394;2023-10-13T00:17:04;23.20;56.60
43561;DHT22;32305;46.410;17.394;2023-10-13T00:19:33;23.20;56.50
43561;DHT22;32305;46.410;17.394;2023-10-13T00:22:19;23.20;56.50
43561;DHT22;32305;46.410;17.394;2023-10-13T00:24:49;23.20;56.50
43561;DHT22;32305;46.410;17.394;2023-10-13T00:27:19;23.20;56.50
43561;DHT22;32305;46.410;17.394;2023-10-13T00:30:06;23.20;56.40
43561;DHT22;32305;46.410;17.394;2023-10-13T00:32:53;23.20;56.40
43561;DHT22;32305;46.410;17.394;2023-10-13T00:35:24;23.20;56.40
43561;DHT22;32305;46.410;17.394;2023-10-13T00:37:52;23.20;56.40
43561;DHT22;32305;46.410;17.394;2023-10-13T00:40:22;23.20;56.40
43561;DHT22;32305;46.410;17.394;2023-10-13T00:43:10;23.20;56.40
43561;DHT22;32305;46.410;17.394;2023-10-13T00:45:57;23.10;56.40
43561;DHT22;32305;46.410;17.394;2023-10-13T00:48:36;23.20;56.50
43561;DHT22;32305;46.410;17.394;2023-10-13T00:51:09;23.10;56.40
43561;DHT22;32305;46.410;17.394;2023-10-13T00:53:49;23.10;56.40
43561;DHT22;32305;46.410;17.394;2023-10-13T00:56:17;23.10;56.40
43561;DHT22;32305;46.410;17.394;2023-10-13T00:58:45;23.10;56.40
43561;DHT22;32305;46.410;17.394;2023-10-13T01:01:20;23.10;56.40
43561;DHT22;32305;46.410;17.394;2023-10-13T01:03:56;23.10;56.40
43561;DHT22;32305;46.410;17.394;2023-10-13T01:06:27;23.10;56.40
43561;DHT22;32305;46.410;17.394;2023-10-13T01:08:58;23.10;56.40
43561;DHT22;32305;46.410;17.394;2023-10-13T01:11:26;23.10;56.40
43561;DHT22;32305;46.410;17.394;2023-10-13T01:13:56;23.10;56.40
43561;DHT22;32305;46.410;17.394;2023-10-13T01:16:23;23.10;56.40
43561;DHT22;32305;46.410;17.394;2023-10-13T01:18:53;23.10;56.40
43561;DHT22;32305;46.410;17.394;2023-10-13T01:21:26;23.10;56.40
43561;DHT22;32305;46.410;17.394;2023-10-13T01:23:56;23.10;56.40
43561;DHT22;32305;46.410;17.394;2023-10-13T01:26:23;23.10;56.40
43561;DHT22;32305;46.410;17.394;2023-10-13T01:28:51;23.10;56.40
43561;DHT22;32305;46.410;17.394;2023-10-13T01:31:18;23.10;56.40
43561;DHT22;32305;46.410;17.394;2023-10-13T01:33:53;23.10;56.40
43561;DHT22;32305;46.410;17.394;2023-10-13T01:36:21;23.10;56.40
43561;DHT22;32305;46.410;17.394;2023-10-13T01:38:48;23.10;56.40
43561;DHT22;32305;46.410;17.394;2023-10-13T01:41:16;23.10;56.30
43561;DHT22;32305;46.410;17.394;2023-10-13T01:43:43;23.10;56.30
43561;DHT22;32305;46.410;17.394;2023-10-13T01:46:11;23.20;56.30
43561;DHT22;32305;46.410;17.394;2023-10-13T01:48:40;23.10;56.30
43561;DHT22;32305;46.410;17.394;2023-10-13T01:51:08;23.10;56.30
43561;DHT22;32305;46.410;17.394;2023-10-13T01:53:37;23.10;56.20
43561;DHT22;32305;46.410;17.394;2023-10-13T01:56:04;23.10;56.20
43561;DHT22;32305;46.410;17.394;2023-10-13T01:58:38;23.10;56.20
43561;DHT22;32305;46.410;17.394;2023-10-13T02:01:09;23.10;56.30
43561;DHT22;32305;46.410;17.394;2023-10-13T02:03:38;23.10;56.30
43561;DHT22;32305;46.410;17.394;2023-10-13T02:06:15;23.10;56.30
43561;DHT22;32305;46.410;17.394;2023-10-13T02:08:50;23.10;56.30
43561;DHT22;32305;46.410;17.394;2023-10-13T02:11:23;23.10;56.30
43561;DHT22;32305;46.410;17.394;2023-10-13T02:13:50;23.10;56.30
43561;DHT22;32305;46.410;17.394;2023-10-13T02:16:18;23.10;56.30
43561;DHT22;32305;46.410;17.394;2023-10-13T02:18:49;23.10;56.20
43561;DHT22;32305;46.410;17.394;2023-10-13T02:21:18;23.10;56.20
43561;DHT22;32305;46.410;17.394;2023-10-13T02:23:45;23.10;56.20
43561;DHT22;32305;46.410;17.394;2023-10-13T02:26:12;23.10;56.20
43561;DHT22;32305;46.410;17.394;2023-10-13T02:28:42;23.10;56.30
43561;DHT22;32305;46.410;17.394;2023-10-13T02:31:17;23.10;56.20
43561;DHT22;32305;46.410;17.394;2023-10-13T02:33:46;23.10;56.20
43561;DHT22;32305;46.410;17.394;2023-10-13T02:36:13;23.10;56.20
43561;DHT22;32305;46.410;17.394;2023-10-13T02:38:46;23.10;56.20
43561;DHT22;32305;46.410;17.394;2023-10-13T02:41:13;23.10;56.20
43561;DHT22;32305;46.410;17.394;2023-10-13T02:43:52;23.10;56.20
43561;DHT22;32305;46.410;17.394;2023-10-13T02:46:20;23.10;56.20
43561;DHT22;32305;46.410;17.394;2023-10-13T02:48:57;23.10;56.20
43561;DHT22;32305;46.410;17.394;2023-10-13T02:51:28;23.00;56.20
43561;DHT22;32305;46.410;17.394;2023-10-13T02:54:05;23.10;56.20
43561;DHT22;32305;46.410;17.394;2023-10-13T02:56:46;23.00;56.20
43561;DHT22;32305;46.410;17.394;2023-10-13T02:59:23;23.10;56.20
43561;DHT22;32305;46.410;17.394;2023-10-13T03:02:10;23.10;56.20
43561;DHT22;32305;46.410;17.394;2023-10-13T03:04:55;23.10;56.20
43561;DHT22;32305;46.410;17.394;2023-10-13T03:07:27;23.10;56.20
43561;DHT22;32305;46.410;17.394;2023-10-13T03:09:57;23.10;56.10
43561;DHT22;32305;46.410;17.394;2023-10-13T03:12:27;23.10;56.10
43561;DHT22;32305;46.410;17.394;2023-10-13T03:15:01;23.10;56.10
43561;DHT22;32305;46.410;17.394;2023-10-13T03:17:46;23.10;56.10
43561;DHT22;32305;46.410;17.394;2023-10-13T03:20:14;23.10;56.00
43561;DHT22;32305;46.410;17.394;2023-10-13T03:22:43;23.10;56.00
43561;DHT22;32305;46.410;17.394;2023-10-13T03:25:15;23.10;56.00
43561;DHT22;32305;46.410;17.394;2023-10-13T03:27:56;23.10;56.00
43561;DHT22;32305;46.410;17.394;2023-10-13T03:30:31;23.10;56.00
43561;DHT22;32305;46.410;17.394;2023-10-13T03:33:03;23.10;56.10
43561;DHT22;32305;46.410;17.394;2023-10-13T03:35:34;23.10;56.00
43561;DHT22;32305;46.410;17.394;2023-10-13T03:38:05;23.10;56.00
43561;DHT22;32305;46.410;17.394;2023-10-13T03:40:44;23.10;56.00
43561;DHT22;32305;46.410;17.394;2023-10-13T03:43:15;23.10;56.00
43561;DHT22;32305;46.410;17.394;2023-10-13T03:45:49;23.10;56.00
43561;DHT22;32305;46.410;17.394;2023-10-13T03:48:27;23.10;56.00
43561;DHT22;32305;46.410;17.394;2023-10-13T03:50:56;23.10;56.60
43561;DHT22;32305;46.410;17.394;2023-10-13T03:53:31;23.10;56.00
43561;DHT22;32305;46.410;17.394;2023-10-13T03:56:02;23.10;56.00
43561;DHT22;32305;46.410;17.394;2023-10-13T03:58:43;23.10;56.10
43561;DHT22;32305;46.410;17.394;2023-10-13T04:01:13;23.10;56.10
43561;DHT22;32305;46.410;17.394;2023-10-13T04:03:44;23.10;56.10
43561;DHT22;32305;46.410;17.394;2023-10-13T04:06:24;23.00;56.00
43561;DHT22;32305;46.410;17.394;2023-10-13T04:09:15;23.00;56.00
43561;DHT22;32305;46.410;17.394;2023-10-13T04:12:03;23.00;56.00
43561;DHT22;32305;46.410;17.394;2023-10-13T04:14:48;23.00;56.00
43561;DHT22;32305;46.410;17.394;2023-10-13T04:17:35;23.00;56.00
43561;DHT22;32305;46.410;17.394;2023-10-13T04:20:08;23.00;56.00
43561;DHT22;32305;46.410;17.394;2023-10-13T04:22:40;23.00;56.00
43561;DHT22;32305;46.410;17.394;2023-10-13T04:25:27;23.00;56.00
43561;DHT22;32305;46.410;17.394;2023-10-13T04:28:14;23.00;55.90
43561;DHT22;32305;46.410;17.394;2023-10-13T04:31:00;23.00;55.90
43561;DHT22;32305;46.410;17.394;2023-10-13T04:33:38;23.00;55.90
43561;DHT22;32305;46.410;17.394;2023-10-13T04:36:19;23.00;55.80
43561;DHT22;32305;46.410;17.394;2023-10-13T04:39:06;23.10;55.80
43561;DHT22;32305;46.410;17.394;2023-10-13T04:41:38;23.10;55.80
43561;DHT22;32305;46.410;17.394;2023-10-13T04:44:16;23.00;55.60
43561;DHT22;32305;46.410;17.394;2023-10-13T04:47:03;23.10;55.60
43561;DHT22;32305;46.410;17.394;2023-10-13T04:49:38;23.00;55.50
43561;DHT22;32305;46.410;17.394;2023-10-13T04:52:19;23.00;55.60
43561;DHT22;32305;46.410;17.394;2023-10-13T04:55:06;23.00;55.60
43561;DHT22;32305;46.410;17.394;2023-10-13T04:57:44;23.00;55.50
43561;DHT22;32305;46.410;17.394;2023-10-13T05:00:16;23.00;55.50
43561;DHT22;32305;46.410;17.394;2023-10-13T05:02:57;23.00;55.50
43561;DHT22;32305;46.410;17.394;2023-10-13T05:05:45;23.00;55.70
43561;DHT22;32305;46.410;17.394;2023-10-13T05:08:20;23.00;56.00
43561;DHT22;32305;46.410;17.394;2023-10-13T05:11:10;23.00;56.10
43561;DHT22;32305;46.410;17.394;2023-10-13T05:13:57;23.00;56.10
43561;DHT22;32305;46.410;17.394;2023-10-13T05:16:44;23.00;55.80
43561;DHT22;32305;46.410;17.394;2023-10-13T05:19:31;23.00;55.90
43561;DHT22;32305;46.410;17.394;2023-10-13T05:22:18;23.00;56.00
43561;DHT22;32305;46.410;17.394;2023-10-13T05:25:05;23.10;56.30
43561;DHT22;32305;46.410;17.394;2023-10-13T05:27:52;23.10;56.40
43561;DHT22;32305;46.410;17.394;2023-10-13T05:30:59;23.10;56.40
43561;DHT22;32305;46.410;17.394;2023-10-13T05:33:46;23.20;56.20
43561;DHT22;32305;46.410;17.394;2023-10-13T05:36:33;23.20;56.10
43561;DHT22;32305;46.410;17.394;2023-10-13T05:39:20;23.30;56.00
43561;DHT22;32305;46.410;17.394;2023-10-13T05:42:07;23.30;55.90
43561;DHT22;32305;46.410;17.394;2023-10-13T05:44:54;23.30;55.70
43561;DHT22;32305;46.410;17.394;2023-10-13T05:47:41;23.40;55.30
43561;DHT22;32305;46.410;17.394;2023-10-13T05:50:15;23.40;55.30
43561;DHT22;32305;46.410;17.394;2023-10-13T05:52:59;23.40;55.00
43561;DHT22;32305;46.410;17.394;2023-10-13T05:55:46;23.40;54.90
43561;DHT22;32305;46.410;17.394;2023-10-13T05:58:33;23.50;54.60
43561;DHT22;32305;46.410;17.394;2023-10-13T06:01:20;23.50;54.70
43561;DHT22;32305;46.410;17.394;2023-10-13T06:04:07;23.50;54.80
43561;DHT22;32305;46.410;17.394;2023-10-13T06:06:54;23.60;54.90
43561;DHT22;32305;46.410;17.394;2023-10-13T06:09:41;23.60;55.00
43561;DHT22;32305;46.410;17.394;2023-10-13T06:12:28;23.60;54.80
43561;DHT22;32305;46.410;17.394;2023-10-13T06:15:15;23.60;54.70
43561;DHT22;32305;46.410;17.394;2023-10-13T06:18:02;23.70;54.50
43561;DHT22;32305;46.410;17.394;2023-10-13T06:20:50;23.70;54.30
43561;DHT22;32305;46.410;17.394;2023-10-13T06:23:37;23.80;54.40
43561;DHT22;32305;46.410;17.394;2023-10-13T06:26:24;23.80;54.10
43561;DHT22;32305;46.410;17.394;2023-10-13T06:29:11;23.80;53.80
43561;DHT22;32305;46.410;17.394;2023-10-13T06:31:48;23.90;53.90
43561;DHT22;32305;46.410;17.394;2023-10-13T06:34:19;23.90;53.70
43561;DHT22;32305;46.410;17.394;2023-10-13T06:36:51;23.90;53.60
43561;DHT22;32305;46.410;17.394;2023-10-13T06:39:28;23.90;53.50
43561;DHT22;32305;46.410;17.394;2023-10-13T06:42:02;23.90;53.50
43561;DHT22;32305;46.410;17.394;2023-10-13T06:44:30;24.00;53.60
43561;DHT22;32305;46.410;17.394;2023-10-13T06:46:58;24.00;53.50
43561;DHT22;32305;46.410;17.394;2023-10-13T06:49:31;24.10;53.60
43561;DHT22;32305;46.410;17.394;2023-10-13T06:52:06;24.10;53.80
43561;DHT22;32305;46.410;17.394;2023-10-13T06:54:33;24.10;53.90
43561;DHT22;32305;46.410;17.394;2023-10-13T06:57:01;24.20;53.80
43561;DHT22;32305;46.410;17.394;2023-10-13T06:59:30;24.30;53.60
43561;DHT22;32305;46.410;17.394;2023-10-13T07:01:59;24.30;53.50
43561;DHT22;32305;46.410;17.394;2023-10-13T07:04:52;24.30;53.60
43561;DHT22;32305;46.410;17.394;2023-10-13T07:07:24;24.40;53.50
43561;DHT22;32305;46.410;17.394;2023-10-13T07:09:51;24.50;53.60
43561;DHT22;32305;46.410;17.394;2023-10-13T07:12:23;24.50;53.20
43561;DHT22;32305;46.410;17.394;2023-10-13T07:14:53;24.50;52.90
43561;DHT22;32305;46.410;17.394;2023-10-13T07:17:37;24.50;53.10
43561;DHT22;32305;46.410;17.394;2023-10-13T07:20:07;24.60;53.00
43561;DHT22;32305;46.410;17.394;2023-10-13T07:22:42;24.60;52.90
43561;DHT22;32305;46.410;17.394;2023-10-13T07:25:22;24.70;52.80
43561;DHT22;32305;46.410;17.394;2023-10-13T07:27:53;24.70;53.30
43561;DHT22;32305;46.410;17.394;2023-10-13T07:30:21;24.70;52.80
43561;DHT22;32305;46.410;17.394;2023-10-13T07:32:54;24.70;52.70
43561;DHT22;32305;46.410;17.394;2023-10-13T07:35:27;24.70;52.60
43561;DHT22;32305;46.410;17.394;2023-10-13T07:37:58;24.70;52.60
43561;DHT22;32305;46.410;17.394;2023-10-13T07:40:27;24.70;52.70
43561;DHT22;32305;46.410;17.394;2023-10-13T07:43:09;24.70;52.50
43561;DHT22;32305;46.410;17.394;2023-10-13T07:45:37;24.70;52.60
43561;DHT22;32305;46.410;17.394;2023-10-13T07:48:05;24.70;52.70
43561;DHT22;32305;46.410;17.394;2023-10-13T07:50:43;24.70;52.80
43561;DHT22;32305;46.410;17.394;2023-10-13T07:53:12;24.70;53.00
43561;DHT22;32305;46.410;17.394;2023-10-13T07:55:46;24.70;53.00
43561;DHT22;32305;46.410;17.394;2023-10-13T07:58:13;24.70;53.00
43561;DHT22;32305;46.410;17.394;2023-10-13T08:00:41;24.80;53.00
43561;DHT22;32305;46.410;17.394;2023-10-13T08:03:14;24.80;53.00
43561;DHT22;32305;46.410;17.394;2023-10-13T08:05:58;24.80;52.90
43561;DHT22;32305;46.410;17.394;2023-10-13T08:08:33;24.80;53.10
43561;DHT22;32305;46.410;17.394;2023-10-13T08:11:11;24.80;53.70
43561;DHT22;32305;46.410;17.394;2023-10-13T08:13:56;24.80;53.30
43561;DHT22;32305;46.410;17.394;2023-10-13T08:16:36;24.90;53.20
43561;DHT22;32305;46.410;17.394;2023-10-13T08:19:20;24.90;53.10
43561;DHT22;32305;46.410;17.394;2023-10-13T08:21:54;24.90;53.00
43561;DHT22;32305;46.410;17.394;2023-10-13T08:24:41;25.00;53.20
43561;DHT22;32305;46.410;17.394;2023-10-13T08:27:28;24.90;53.30
43561;DHT22;32305;46.410;17.394;2023-10-13T08:30:03;24.90;53.10
43561;DHT22;32305;46.410;17.394;2023-10-13T08:32:50;24.90;52.90
43561;DHT22;32305;46.410;17.394;2023-10-13T08:35:28;24.90;53.00
43561;DHT22;32305;46.410;17.394;2023-10-13T08:38:02;24.90;53.00
43561;DHT22;32305;46.410;17.394;2023-10-13T08:40:57;24.90;53.10
43561;DHT22;32305;46.410;17.394;2023-10-13T08:43:45;24.90;53.10
43561;DHT22;32305;46.410;17.394;2023-10-13T08:46:20;24.90;53.30
43561;DHT22;32305;46.410;17.394;2023-10-13T08:49:01;24.90;53.30
43561;DHT22;32305;46.410;17.394;2023-10-13T08:51:35;24.90;53.50
43561;DHT22;32305;46.410;17.394;2023-10-13T08:54:16;24.80;53.90
43561;DHT22;32305;46.410;17.394;2023-10-13T08:57:01;24.70;54.20
43561;DHT22;32305;46.410;17.394;2023-10-13T08:59:48;24.70;54.10
43561;DHT22;32305;46.410;17.394;2023-10-13T09:02:22;24.70;53.90
43561;DHT22;32305;46.410;17.394;2023-10-13T09:05:09;24.70;54.00
43561;DHT22;32305;46.410;17.394;2023-10-13T09:07:57;24.70;54.10
43561;DHT22;32305;46.410;17.394;2023-10-13T09:10:35;24.70;54.10
43561;DHT22;32305;46.410;17.394;2023-10-13T09:13:11;24.70;54.00
43561;DHT22;32305;46.410;17.394;2023-10-13T09:15:47;24.70;54.10
43561;DHT22;32305;46.410;17.394;2023-10-13T09:18:28;24.70;54.10
43561;DHT22;32305;46.410;17.394;2023-10-13T09:21:09;24.80;54.10
43561;DHT22;32305;46.410;17.394;2023-10-13T09:23:56;24.70;54.00
43561;DHT22;32305;46.410;17.394;2023-10-13T09:26:43;24.70;54.00
43561;DHT22;32305;46.410;17.394;2023-10-13T09:29:16;24.70;54.00
43561;DHT22;32305;46.410;17.394;2023-10-13T09:31:46;24.70;54.10
43561;DHT22;32305;46.410;17.394;2023-10-13T09:34:19;24.70;54.10
43561;DHT22;32305;46.410;17.394;2023-10-13T09:36:47;24.70;54.00
43561;DHT22;32305;46.410;17.394;2023-10-13T09:39:14;24.70;54.00
43561;DHT22;32305;46.410;17.394;2023-10-13T09:41:56;24.70;54.00
43561;DHT22;32305;46.410;17.394;2023-10-13T09:44:26;24.80;54.20
43561;DHT22;32305;46.410;17.394;2023-10-13T09:47:00;24.70;54.20
43561;DHT22;32305;46.410;17.394;2023-10-13T09:49:39;24.80;54.20
43561;DHT22;32305;46.410;17.394;2023-10-13T09:52:14;24.80;54.30
43561;DHT22;32305;46.410;17.394;2023-10-13T09:57:36;24.70;54.40
43561;DHT22;32305;46.410;17.394;2023-10-13T10:00:19;24.80;54.60
43561;DHT22;32305;46.410;17.394;2023-10-13T10:03:06;24.80;54.60
43561;DHT22;32305;46.410;17.394;2023-10-13T10:05:58;24.80;54.50
43561;DHT22;32305;46.410;17.394;2023-10-13T10:08:33;24.80;54.50
43561;DHT22;32305;46.410;17.394;2023-10-13T10:14:06;24.80;54.50
43561;DHT22;32305;46.410;17.394;2023-10-13T10:16:39;24.80;54.40
43561;DHT22;32305;46.410;17.394;2023-10-13T10:19:08;24.80;54.30
43561;DHT22;32305;46.410;17.394;2023-10-13T10:21:36;24.80;54.30
43561;DHT22;32305;46.410;17.394;2023-10-13T10:24:14;24.80;54.20
43561;DHT22;32305;46.410;17.394;2023-10-13T10:26:51;24.80;54.40
43561;DHT22;32305;46.410;17.394;2023-10-13T10:29:21;24.80;54.50
43561;DHT22;32305;46.410;17.394;2023-10-13T10:31:48;24.80;54.50
43561;DHT22;32305;46.410;17.394;2023-10-13T10:34:16;24.90;54.40
43561;DHT22;32305;46.410;17.394;2023-10-13T10:36:53;24.90;54.20
43561;DHT22;32305;46.410;17.394;2023-10-13T10:39:21;24.90;54.30
43561;DHT22;32305;46.410;17.394;2023-10-13T10:42:08;24.90;54.50
43561;DHT22;32305;46.410;17.394;2023-10-13T10:44:42;24.90;54.60
43561;DHT22;32305;46.410;17.394;2023-10-13T10:47:14;24.90;54.40
43561;DHT22;32305;46.410;17.394;2023-10-13T10:50:02;25.00;54.40
43561;DHT22;32305;46.410;17.394;2023-10-13T10:52:50;25.00;54.30
43561;DHT22;32305;46.410;17.394;2023-10-13T10:55:19;25.00;54.20
43561;DHT22;32305;46.410;17.394;2023-10-13T10:57:47;25.10;54.50
43561;DHT22;32305;46.410;17.394;2023-10-13T11:00:24;25.10;54.20
43561;DHT22;32305;46.410;17.394;2023-10-13T11:03:03;25.20;54.10
43561;DHT22;32305;46.410;17.394;2023-10-13T11:05:41;25.20;54.10
43561;DHT22;32305;46.410;17.394;2023-10-13T11:08:19;25.20;54.00
43561;DHT22;32305;46.410;17.394;2023-10-13T11:10:51;25.30;54.00
43561;DHT22;32305;46.410;17.394;2023-10-13T11:13:19;25.30;53.80
43561;DHT22;32305;46.410;17.394;2023-10-13T11:15:51;25.30;53.80
43561;DHT22;32305;46.410;17.394;2023-10-13T11:18:28;25.30;53.80
43561;DHT22;32305;46.410;17.394;2023-10-13T11:21:01;25.30;53.70
43561;DHT22;32305;46.410;17.394;2023-10-13T11:23:34;25.30;53.50
43561;DHT22;32305;46.410;17.394;2023-10-13T11:26:03;25.40;53.60
43561;DHT22;32305;46.410;17.394;2023-10-13T11:28:32;25.40;53.40
43561;DHT22;32305;46.410;17.394;2023-10-13T11:31:01;25.40;53.40
43561;DHT22;32305;46.410;17.394;2023-10-13T11:33:43;25.40;53.40
43561;DHT22;32305;46.410;17.394;2023-10-13T11:36:16;25.40;53.30
43561;DHT22;32305;46.410;17.394;2023-10-13T11:38:58;25.40;53.30
43561;DHT22;32305;46.410;17.394;2023-10-13T11:41:25;25.40;53.20
43561;DHT22;32305;46.410;17.394;2023-10-13T11:44:02;25.40;53.30
43561;DHT22;32305;46.410;17.394;2023-10-13T11:46:39;25.40;53.20
43561;DHT22;32305;46.410;17.394;2023-10-13T11:49:26;25.40;53.40
43561;DHT22;32305;46.410;17.394;2023-10-13T11:52:00;25.50;53.50
43561;DHT22;32305;46.410;17.394;2023-10-13T11:54:43;25.50;53.30
43561;DHT22;32305;46.410;17.394;2023-10-13T11:57:10;25.50;53.30
43561;DHT22;32305;46.410;17.394;2023-10-13T11:59:37;25.50;53.30
43561;DHT22;32305;46.410;17.394;2023-10-13T12:02:11;25.50;53.40
43561;DHT22;32305;46.410;17.394;2023-10-13T12:04:41;25.50;53.30
43561;DHT22;32305;46.410;17.394;2023-10-13T12:07:19;25.50;53.20
43561;DHT22;32305;46.410;17.394;2023-10-13T12:10:06;25.50;53.30
43561;DHT22;32305;46.410;17.394;2023-10-13T12:12:41;25.40;53.10
43561;DHT22;32305;46.410;17.394;2023-10-13T12:15:10;25.50;53.10
43561;DHT22;32305;46.410;17.394;2023-10-13T12:17:41;25.40;53.00
43561;DHT22;32305;46.410;17.394;2023-10-13T12:20:12;25.40;53.00
43561;DHT22;32305;46.410;17.394;2023-10-13T12:22:45;25.40;53.10
43561;DHT22;32305;46.410;17.394;2023-10-13T12:25:22;25.40;53.10
43561;DHT22;32305;46.410;17.394;2023-10-13T12:27:53;25.40;53.00
43561;DHT22;32305;46.410;17.394;2023-10-13T12:30:24;25.40;52.90
43561;DHT22;32305;46.410;17.394;2023-10-13T12:33:11;25.40;52.90
43561;DHT22;32305;46.410;17.394;2023-10-13T12:35:41;25.40;52.80
43561;DHT22;32305;46.410;17.394;2023-10-13T12:38:25;25.40;52.90
43561;DHT22;32305;46.410;17.394;2023-10-13T12:41:12;25.40;52.90
43561;DHT22;32305;46.410;17.394;2023-10-13T12:44:02;25.40;53.00
43561;DHT22;32305;46.410;17.394;2023-10-13T12:46:51;25.40;53.00
43561;DHT22;32305;46.410;17.394;2023-10-13T12:49:38;25.40;53.00
43561;DHT22;32305;46.410;17.394;2023-10-13T12:52:16;25.40;52.90
43561;DHT22;32305;46.410;17.394;2023-10-13T12:54:43;25.40;52.90
43561;DHT22;32305;46.410;17.394;2023-10-13T12:57:14;25.30;53.00
43561;DHT22;32305;46.410;17.394;2023-10-13T12:59:42;25.30;53.10
43561;DHT22;32305;46.410;17.394;2023-10-13T13:02:09;25.30;53.30
43561;DHT22;32305;46.410;17.394;2023-10-13T13:04:42;25.30;53.40
43561;DHT22;32305;46.410;17.394;2023-10-13T13:07:14;25.20;53.40
43561;DHT22;32305;46.410;17.394;2023-10-13T13:09:42;25.30;53.50
43561;DHT22;32305;46.410;17.394;2023-10-13T13:12:09;25.30;53.40
43561;DHT22;32305;46.410;17.394;2023-10-13T13:14:39;25.20;53.30
43561;DHT22;32305;46.410;17.394;2023-10-13T13:17:13;25.20;53.40
43561;DHT22;32305;46.410;17.394;2023-10-13T13:19:40;25.20;53.50
43561;DHT22;32305;46.410;17.394;2023-10-13T13:22:08;25.20;53.80
43561;DHT22;32305;46.410;17.394;2023-10-13T13:24:39;25.20;54.70
43561;DHT22;32305;46.410;17.394;2023-10-13T13:27:10;25.20;54.70
43561;DHT22;32305;46.410;17.394;2023-10-13T13:29:40;25.20;54.60
43561;DHT22;32305;46.410;17.394;2023-10-13T13:32:08;25.20;54.60
43561;DHT22;32305;46.410;17.394;2023-10-13T13:34:51;25.20;54.50
43561;DHT22;32305;46.410;17.394;2023-10-13T13:37:30;25.20;54.30
43561;DHT22;32305;46.410;17.394;2023-10-13T13:39:57;25.20;54.10
43561;DHT22;32305;46.410;17.394;2023-10-13T13:42:42;25.20;54.00
43561;DHT22;32305;46.410;17.394;2023-10-13T13:45:14;25.20;53.90
43561;DHT22;32305;46.410;17.394;2023-10-13T13:47:49;25.20;53.80
43561;DHT22;32305;46.410;17.394;2023-10-13T13:50:24;25.20;53.70
43561;DHT22;32305;46.410;17.394;2023-10-13T13:52:56;25.20;53.70
43561;DHT22;32305;46.410;17.394;2023-10-13T13:55:24;25.20;53.60
43561;DHT22;32305;46.410;17.394;2023-10-13T13:57:56;25.10;53.50
43561;DHT22;32305;46.410;17.394;2023-10-13T14:00:23;25.10;53.50
43561;DHT22;32305;46.410;17.394;2023-10-13T14:03:04;25.10;53.40
43561;DHT22;32305;46.410;17.394;2023-10-13T14:05:33;25.10;53.50
43561;DHT22;32305;46.410;17.394;2023-10-13T14:08:00;25.10;53.50
43561;DHT22;32305;46.410;17.394;2023-10-13T14:10:27;25.10;53.50
43561;DHT22;32305;46.410;17.394;2023-10-13T14:13:14;25.10;53.50
43561;DHT22;32305;46.410;17.394;2023-10-13T14:15:40;25.10;53.50
43561;DHT22;32305;46.410;17.394;2023-10-13T14:18:10;25.10;53.50
43561;DHT22;32305;46.410;17.394;2023-10-13T14:20:44;25.10;53.50
43561;DHT22;32305;46.410;17.394;2023-10-13T14:23:11;25.10;53.50
43561;DHT22;32305;46.410;17.394;2023-10-13T14:25:38;25.10;53.50
43561;DHT22;32305;46.410;17.394;2023-10-13T14:28:12;25.10;53.60
43561;DHT22;32305;46.410;17.394;2023-10-13T14:30:44;25.10;53.60
43561;DHT22;32305;46.410;17.394;2023-10-13T14:33:11;25.10;53.60
43561;DHT22;32305;46.410;17.394;2023-10-13T14:35:39;25.10;53.60
43561;DHT22;32305;46.410;17.394;2023-10-13T14:38:06;25.10;53.60
43561;DHT22;32305;46.410;17.394;2023-10-13T14:40:34;25.10;53.60
43561;DHT22;32305;46.410;17.394;2023-10-13T14:43:01;25.10;53.70
43561;DHT22;32305;46.410;17.394;2023-10-13T14:45:28;25.10;53.70
43561;DHT22;32305;46.410;17.394;2023-10-13T14:47:55;25.10;53.70
43561;DHT22;32305;46.410;17.394;2023-10-13T14:50:22;25.10;53.70
43561;DHT22;32305;46.410;17.394;2023-10-13T14:52:49;25.00;53.70
43561;DHT22;32305;46.410;17.394;2023-10-13T14:55:17;25.00;53.70
43561;DHT22;32305;46.410;17.394;2023-10-13T14:57:48;25.00;53.80
43561;DHT22;32305;46.410;17.394;2023-10-13T15:00:17;25.00;53.80
43561;DHT22;32305;46.410;17.394;2023-10-13T15:02:54;25.00;53.80
43561;DHT22;32305;46.410;17.394;2023-10-13T15:05:22;25.00;53.90
43561;DHT22;32305;46.410;17.394;2023-10-13T15:07:49;25.00;53.90
43561;DHT22;32305;46.410;17.394;2023-10-13T15:10:18;25.00;53.90
43561;DHT22;32305;46.410;17.394;2023-10-13T15:12:45;25.00;53.90
43561;DHT22;32305;46.410;17.394;2023-10-13T15:15:12;25.00;54.00
43561;DHT22;32305;46.410;17.394;2023-10-13T15:17:46;24.90;54.00
43561;DHT22;32305;46.410;17.394;2023-10-13T15:20:15;24.90;54.60
43561;DHT22;32305;46.410;17.394;2023-10-13T15:22:45;24.90;54.10
43561;DHT22;32305;46.410;17.394;2023-10-13T15:25:16;24.90;54.10
43561;DHT22;32305;46.410;17.394;2023-10-13T15:27:59;24.90;54.10
43561;DHT22;32305;46.410;17.394;2023-10-13T15:30:29;24.90;54.20
43561;DHT22;32305;46.410;17.394;2023-10-13T15:33:12;24.90;54.20
43561;DHT22;32305;46.410;17.394;2023-10-13T15:35:42;24.90;54.30
43561;DHT22;32305;46.410;17.394;2023-10-13T15:38:10;24.80;54.30
43561;DHT22;32305;46.410;17.394;2023-10-13T15:40:42;24.80;54.30
43561;DHT22;32305;46.410;17.394;2023-10-13T15:43:10;24.80;54.30
43561;DHT22;32305;46.410;17.394;2023-10-13T15:45:37;24.80;54.40
43561;DHT22;32305;46.410;17.394;2023-10-13T15:48:09;24.70;54.40
43561;DHT22;32305;46.410;17.394;2023-10-13T15:50:46;24.80;54.50
43561;DHT22;32305;46.410;17.394;2023-10-13T15:53:17;24.70;54.50
43561;DHT22;32305;46.410;17.394;2023-10-13T15:55:44;24.70;54.50
43561;DHT22;32305;46.410;17.394;2023-10-13T15:58:13;24.70;54.60
43561;DHT22;32305;46.410;17.394;2023-10-13T16:00:40;24.70;54.70
43561;DHT22;32305;46.410;17.394;2023-10-13T16:03:08;24.70;54.70
43561;DHT22;32305;46.410;17.394;2023-10-13T16:05:39;24.60;54.70
43561;DHT22;32305;46.410;17.394;2023-10-13T16:08:10;24.60;54.80
43561;DHT22;32305;46.410;17.394;2023-10-13T16:10:40;24.60;54.80